Time;durP1;ratioP1;P1;durP2;ratioP2;P2;SDS_P1;SDS_P2;PMS_P1;PMS_P2;Temp;Humidity;BMP_temperature;BMP_pressure;BME280_temperature;BME280_humidity;BME280_pressure;Samples;Min_cycle;Max_cycle;Signal;HPM_P1;HPM_P2
2022/04/14 00:00:23;;;;;;;37.25;28.02;;;11.60;99.90;;;;;;5010459;28;20022;-68
2022/04/14 00:02:49;;;;;;;39.08;28.20;;;11.70;99.90;;;;;;5010796;28;20037;-68
2022/04/14 00:05:14;;;;;;;36.42;26.63;;;11.80;99.90;;;;;;5010829;28;20026;-69
2022/04/14 00:07:40;;;;;;;39.05;26.60;;;11.50;99.90;;;;;;5004569;28;20045;-69
2022/04/14 00:10:06;;;;;;;41.35;25.83;;;11.80;99.90;;;;;;5009860;28;20095;-68
2022/04/14 00:12:32;;;;;;;35.83;27.20;;;11.40;99.90;;;;;;5010408;28;20037;-68
2022/04/14 00:14:57;;;;;;;43.97;28.58;;;12.20;99.90;;;;;;5010036;28;20018;-68
2022/04/14 00:17:23;;;;;;;46.97;28.83;;;11.70;99.90;;;;;;5010330;28;20411;-68
2022/04/14 00:19:49;;;;;;;43.33;28.25;;;11.50;99.90;;;;;;5010683;28;20037;-68
2022/04/14 00:22:15;;;;;;;52.92;30.60;;;11.40;99.90;;;;;;5010624;28;20753;-68
2022/04/14 00:24:41;;;;;;;48.38;31.50;;;11.60;99.90;;;;;;5004142;28;20096;-68
2022/04/14 00:27:06;;;;;;;57.60;34.42;;;12.30;99.90;;;;;;5006091;28;20425;-69
2022/04/14 00:29:32;;;;;;;55.45;34.63;;;11.60;99.90;;;;;;5009525;28;20040;-69
2022/04/14 00:31:57;;;;;;;61.47;36.35;;;11.50;99.90;;;;;;5009890;28;20096;-69
2022/04/14 00:34:23;;;;;;;54.17;32.20;;;11.50;99.90;;;;;;5010432;28;20072;-69
2022/04/14 00:36:48;;;;;;;51.40;29.95;;;11.60;99.90;;;;;;5010470;28;20052;-69
2022/04/14 00:39:14;;;;;;;47.90;30.33;;;11.50;99.90;;;;;;5010229;28;20073;-69
2022/04/14 00:41:39;;;;;;;47.95;28.50;;;11.60;99.90;;;;;;5009580;28;20025;-69
2022/04/14 00:44:05;;;;;;;67.10;30.13;;;12.60;99.90;;;;;;5009687;28;20104;-69
2022/04/14 00:46:31;;;;;;;46.67;32.75;;;11.50;99.90;;;;;;5009961;28;20050;-69
2022/04/14 00:48:57;;;;;;;144.45;37.00;;;11.40;99.90;;;;;;5009932;28;20052;-69
2022/04/14 00:51:23;;;;;;;112.78;36.50;;;11.50;99.90;;;;;;5009436;28;20030;-69
2022/04/14 00:53:48;;;;;;;78.45;37.30;;;11.50;99.90;;;;;;5010216;28;20030;-69
2022/04/14 00:56:14;;;;;;;63.60;36.13;;;11.30;99.90;;;;;;5010808;28;20395;-70
2022/04/14 00:58:43;;;;;;;69.97;37.60;;;12.10;99.90;;;;;;5016361;28;20475;-69
2022/04/14 01:01:09;;;;;;;76.95;36.17;;;11.50;99.90;;;;;;5016240;28;20030;-69
2022/04/14 01:03:35;;;;;;;99.63;37.35;;;11.60;99.90;;;;;;5016471;28;20426;-69
2022/04/14 01:06:02;;;;;;;64.43;34.70;;;11.40;99.90;;;;;;5015730;28;20037;-69
2022/04/14 01:08:29;;;;;;;132.93;36.00;;;11.40;99.90;;;;;;5016448;28;20545;-69
2022/04/14 01:10:57;;;;;;;78.72;36.85;;;11.40;99.90;;;;;;5016693;28;20097;-69
2022/04/14 01:13:22;;;;;;;52.92;32.55;;;11.40;99.90;;;;;;5016314;28;20061;-69
2022/04/14 01:15:48;;;;;;;80.13;34.42;;;11.40;99.90;;;;;;5016454;28;20057;-69
2022/04/14 01:18:15;;;;;;;60.45;34.50;;;11.60;99.90;;;;;;5016423;28;20030;-69
2022/04/14 01:20:42;;;;;;;48.55;31.92;;;11.30;99.90;;;;;;5016471;28;20029;-69
2022/04/14 01:23:09;;;;;;;42.03;29.13;;;11.30;99.90;;;;;;5016339;28;20118;-69
2022/04/14 01:25:35;;;;;;;74.22;31.73;;;11.20;99.90;;;;;;5015265;28;20056;-69
2022/04/14 01:28:02;;;;;;;64.20;32.53;;;11.20;99.90;;;;;;5009850;28;20037;-69
2022/04/14 01:30:29;;;;;;;64.28;34.90;;;11.30;99.90;;;;;;5016376;28;20026;-69
2022/04/14 01:32:55;;;;;;;51.85;35.97;;;11.30;99.90;;;;;;5016411;28;20041;-69
2022/04/14 01:35:22;;;;;;;62.78;36.38;;;12.00;99.90;;;;;;5016118;28;20026;-69
2022/04/14 01:37:48;;;;;;;54.40;38.28;;;11.30;99.90;;;;;;5014164;28;20040;-69
2022/04/14 01:40:13;;;;;;;50.50;34.70;;;11.30;99.90;;;;;;5014902;28;20010;-69
2022/04/14 01:42:39;;;;;;;64.75;35.33;;;11.40;99.90;;;;;;5016095;28;20072;-69
2022/04/14 01:45:07;;;;;;;70.30;34.75;;;11.40;99.90;;;;;;5015646;28;20050;-68
2022/04/14 01:47:41;;;;;;;65.07;34.55;;;11.40;99.90;;;;;;5016423;28;20234;-68
2022/04/14 01:50:07;;;;;;;;;;;11.40;99.90;;;;;;5016424;28;20044;-68
2022/04/14 01:52:33;;;;;;;89.00;34.47;;;11.40;99.90;;;;;;5015896;28;19916;-69
2022/04/14 01:54:59;;;;;;;108.00;36.25;;;11.30;99.90;;;;;;5014851;28;20049;-69
2022/04/14 01:57:24;;;;;;;160.18;41.25;;;11.30;99.90;;;;;;5012461;28;20479;-69
2022/04/14 01:59:50;;;;;;;114.45;38.65;;;11.40;99.90;;;;;;5014841;28;20117;-68
2022/04/14 02:02:15;;;;;;;133.23;40.40;;;11.10;99.90;;;;;;5015834;28;20034;-68
2022/04/14 02:04:42;;;;;;;124.82;38.92;;;11.40;99.90;;;;;;5015953;28;20026;-69
2022/04/14 02:07:09;;;;;;;73.03;40.28;;;11.40;99.90;;;;;;5009408;28;20025;-69
2022/04/14 02:09:35;;;;;;;72.35;39.50;;;11.40;99.90;;;;;;5011775;28;20025;-69
2022/04/14 02:12:01;;;;;;;105.22;38.60;;;11.30;99.90;;;;;;5010509;28;20022;-69
2022/04/14 02:14:26;;;;;;;94.57;34.80;;;11.40;99.90;;;;;;5013025;28;20037;-69
2022/04/14 02:16:53;;;;;;;91.13;37.28;;;11.70;99.90;;;;;;5013119;28;20058;-69
2022/04/14 02:19:18;;;;;;;79.03;37.05;;;11.30;99.90;;;;;;5012563;28;20101;-69
2022/04/14 02:21:44;;;;;;;74.88;38.42;;;11.40;99.90;;;;;;5012978;28;20508;-69
2022/04/14 02:24:09;;;;;;;115.45;41.45;;;11.40;99.90;;;;;;5012135;28;20026;-69
2022/04/14 02:26:35;;;;;;;158.52;41.70;;;11.50;99.90;;;;;;4994211;28;20092;-69
2022/04/14 02:29:00;;;;;;;88.35;40.45;;;11.50;99.90;;;;;;4993070;28;20472;-69
2022/04/14 02:31:26;;;;;;;146.85;41.65;;;11.40;99.90;;;;;;4993017;28;20129;-69
2022/04/14 02:33:51;;;;;;;90.05;42.97;;;11.40;99.90;;;;;;4993201;28;20038;-69
2022/04/14 02:36:17;;;;;;;120.13;42.47;;;11.50;99.90;;;;;;4992766;28;20546;-69
2022/04/14 02:38:45;;;;;;;61.25;38.97;;;11.50;99.90;;;;;;4992421;28;20038;-69
2022/04/14 02:41:10;;;;;;;79.68;39.60;;;11.70;99.90;;;;;;5011818;28;20018;-69
2022/04/14 02:43:37;;;;;;;72.95;38.90;;;11.60;99.90;;;;;;5012446;28;20042;-69
2022/04/14 02:46:04;;;;;;;121.07;42.75;;;11.40;99.90;;;;;;5012110;28;20487;-69
2022/04/14 02:48:30;;;;;;;139.93;43.13;;;11.50;99.90;;;;;;5012398;28;20034;-69
2022/04/14 02:50:56;;;;;;;136.77;41.95;;;11.40;99.90;;;;;;5012163;28;20463;-69
2022/04/14 02:53:21;;;;;;;109.95;42.53;;;11.40;99.90;;;;;;5011850;28;20044;-69
2022/04/14 02:55:47;;;;;;;67.78;40.53;;;11.50;99.90;;;;;;4996733;28;20437;-70
2022/04/14 02:58:13;;;;;;;108.15;41.20;;;11.40;99.90;;;;;;4992467;28;20023;-69
2022/04/14 03:00:39;;;;;;;64.72;39.45;;;11.40;99.90;;;;;;4992533;28;20499;-69
2022/04/14 03:03:04;;;;;;;89.05;41.40;;;11.50;99.90;;;;;;4992437;28;20081;-69
2022/04/14 03:05:30;;;;;;;145.27;43.30;;;11.40;99.90;;;;;;4991805;28;20396;-69
2022/04/14 03:07:55;;;;;;;81.10;42.28;;;11.40;99.90;;;;;;4990466;28;20038;-69
2022/04/14 03:10:21;;;;;;;110.97;44.50;;;11.40;99.90;;;;;;4990504;28;20022;-69
2022/04/14 03:12:47;;;;;;;101.55;42.47;;;11.40;99.90;;;;;;4992046;28;20097;-69
2022/04/14 03:15:16;;;;;;;58.22;41.63;;;11.30;99.90;;;;;;4999939;28;20068;-69
2022/04/14 03:17:42;;;;;;;100.80;42.20;;;11.30;99.90;;;;;;4999212;28;20045;-69
2022/04/14 03:20:09;;;;;;;116.40;42.60;;;11.40;99.90;;;;;;4991796;28;20125;-69
2022/04/14 03:22:35;;;;;;;79.80;42.08;;;11.30;99.90;;;;;;4991886;28;20069;-69
2022/04/14 03:25:08;;;;;;;51.45;37.60;;;11.20;99.90;;;;;;4992465;28;20088;-69
2022/04/14 03:27:34;;;;;;;71.93;38.95;;;11.20;99.90;;;;;;4992087;28;20033;-69
2022/04/14 03:30:00;;;;;;;87.43;41.17;;;12.00;99.90;;;;;;4991737;28;20031;-69
2022/04/14 03:32:25;;;;;;;88.30;42.22;;;11.10;99.90;;;;;;4991765;28;20041;-69
2022/04/14 03:34:52;;;;;;;58.20;38.78;;;11.10;99.90;;;;;;5008369;28;20026;-69
2022/04/14 03:37:18;;;;;;;94.30;40.28;;;11.00;99.90;;;;;;5010934;28;20083;-69
2022/04/14 03:39:43;;;;;;;120.25;44.70;;;11.10;99.90;;;;;;5010128;28;20113;-69
2022/04/14 03:42:09;;;;;;;113.97;41.25;;;10.90;99.90;;;;;;5011089;28;20018;-69
2022/04/14 03:44:34;;;;;;;82.85;39.80;;;10.90;99.90;;;;;;5011122;28;20511;-69
2022/04/14 03:47:00;;;;;;;60.20;37.35;;;11.00;99.90;;;;;;5011028;28;20050;-70
2022/04/14 03:49:25;;;;;;;67.28;38.55;;;10.70;99.90;;;;;;5011211;28;20418;-69
2022/04/14 03:51:54;;;;;;;51.97;38.03;;;10.90;99.90;;;;;;5010872;28;20109;-69
2022/04/14 03:54:19;;;;;;;65.97;37.72;;;10.70;99.90;;;;;;5004887;28;20572;-69
2022/04/14 03:56:46;;;;;;;50.70;33.53;;;10.90;99.90;;;;;;4991510;28;20097;-69
2022/04/14 03:59:13;;;;;;;80.53;35.65;;;10.70;99.90;;;;;;4991129;28;20023;-69
2022/04/14 04:01:39;;;;;;;53.38;33.72;;;10.80;99.90;;;;;;4991331;28;20022;-69
2022/04/14 04:04:04;;;;;;;52.72;34.47;;;11.10;99.90;;;;;;4991164;28;20113;-69
2022/04/14 04:06:30;;;;;;;48.65;33.38;;;10.80;99.90;;;;;;4994459;28;20026;-69
2022/04/14 04:08:55;;;;;;;52.47;36.10;;;10.80;99.90;;;;;;5003718;28;20105;-69
2022/04/14 04:11:21;;;;;;;50.30;34.63;;;10.90;99.90;;;;;;5001430;28;20030;-69
2022/04/14 04:13:46;;;;;;;71.60;32.60;;;10.60;99.90;;;;;;5010685;28;20088;-69
2022/04/14 04:16:12;;;;;;;45.20;32.30;;;10.60;99.90;;;;;;5010391;28;20899;-71
2022/04/14 04:18:37;;;;;;;45.08;35.28;;;10.50;99.90;;;;;;5010411;28;20037;-69
2022/04/14 04:21:03;;;;;;;51.00;31.27;;;10.60;99.90;;;;;;5009850;28;20375;-69
2022/04/14 04:23:28;;;;;;;79.73;35.13;;;10.50;99.90;;;;;;5010345;28;20034;-69
2022/04/14 04:25:54;;;;;;;65.63;34.77;;;10.60;99.90;;;;;;5008113;28;20483;-69
2022/04/14 04:28:19;;;;;;;64.70;34.17;;;10.40;99.90;;;;;;5010021;28;20022;-69
2022/04/14 04:30:45;;;;;;;50.75;32.63;;;10.30;99.90;;;;;;5009029;28;20112;-69
2022/04/14 04:33:10;;;;;;;53.80;33.30;;;10.40;99.90;;;;;;5009723;28;20045;-69
2022/04/14 04:35:35;;;;;;;50.97;30.45;;;10.60;99.90;;;;;;5009555;28;20030;-69
2022/04/14 04:38:01;;;;;;;51.10;30.88;;;10.30;99.90;;;;;;4992258;28;20095;-69
2022/04/14 04:40:26;;;;;;;64.78;32.05;;;10.40;99.90;;;;;;5006265;28;20034;-69
2022/04/14 04:42:52;;;;;;;74.80;33.08;;;10.30;99.90;;;;;;5010511;28;20161;-69
2022/04/14 04:45:17;;;;;;;49.60;30.80;;;10.30;99.90;;;;;;5008884;28;20026;-69
2022/04/14 04:47:43;;;;;;;89.85;32.88;;;10.30;99.90;;;;;;5010204;28;20082;-69
2022/04/14 04:50:08;;;;;;;60.83;31.03;;;10.40;99.90;;;;;;5009663;28;20033;-69
2022/04/14 04:52:35;;;;;;;86.43;32.00;;;10.30;99.90;;;;;;5010079;28;20064;-69
2022/04/14 04:55:01;;;;;;;69.32;31.73;;;10.50;99.90;;;;;;5010148;28;20034;-69
2022/04/14 04:57:26;;;;;;;84.30;32.27;;;10.60;99.90;;;;;;5008909;28;20033;-69
2022/04/14 04:59:52;;;;;;;105.50;32.30;;;10.50;99.90;;;;;;5010357;28;20092;-69
2022/04/14 05:02:17;;;;;;;77.78;29.67;;;10.40;99.90;;;;;;5006095;28;20026;-69
2022/04/14 05:04:42;;;;;;;86.73;29.17;;;10.70;99.90;;;;;;4990041;28;20037;-69
2022/04/14 05:07:08;;;;;;;92.10;31.90;;;10.30;99.90;;;;;;4990299;28;20423;-69
2022/04/14 05:09:34;;;;;;;65.63;29.33;;;10.40;99.90;;;;;;4990478;28;20026;-69
2022/04/14 05:11:59;;;;;;;62.77;31.23;;;10.50;99.90;;;;;;4990401;28;20073;-69
2022/04/14 05:14:25;;;;;;;59.38;32.60;;;10.30;99.90;;;;;;4990360;28;20113;-69
2022/04/14 05:16:50;;;;;;;74.70;30.98;;;10.40;99.90;;;;;;4990577;28;20049;-69
2022/04/14 05:19:16;;;;;;;62.63;30.05;;;10.50;99.90;;;;;;4990060;28;20039;-69
2022/04/14 05:21:41;;;;;;;59.97;31.38;;;10.50;99.90;;;;;;4990154;28;20101;-69
2022/04/14 05:24:07;;;;;;;64.50;29.67;;;10.50;99.90;;;;;;4990362;28;20442;-69
2022/04/14 05:26:32;;;;;;;64.60;29.17;;;10.30;99.90;;;;;;4990358;28;20094;-69
2022/04/14 05:28:58;;;;;;;66.85;29.27;;;10.50;99.90;;;;;;4990256;28;20586;-69
2022/04/14 05:31:23;;;;;;;56.40;30.13;;;10.40;99.90;;;;;;4990340;28;20027;-69
2022/04/14 05:33:49;;;;;;;52.38;30.90;;;10.70;99.90;;;;;;5005574;28;20383;-69
2022/04/14 05:36:15;;;;;;;57.17;29.15;;;10.50;99.90;;;;;;5008331;28;20034;-69
2022/04/14 05:38:40;;;;;;;48.83;30.87;;;10.40;99.90;;;;;;5009659;28;20491;-69
2022/04/14 05:41:06;;;;;;;56.47;31.65;;;10.30;99.90;;;;;;5008341;28;20037;-69
2022/04/14 05:43:31;;;;;;;40.22;31.80;;;10.30;99.90;;;;;;5010601;28;20034;-69
2022/04/14 05:45:57;;;;;;;45.45;31.58;;;;;;;;;;5013198;28;20108;-69
2022/04/14 05:48:24;;;;;;;38.53;28.63;;;10.20;99.90;;;;;;5012843;28;20414;-69
2022/04/14 05:50:50;;;;;;;61.75;32.47;;;10.30;99.90;;;;;;4997783;28;20038;-69
2022/04/14 05:53:17;;;;;;;48.40;29.07;;;10.40;99.90;;;;;;4993592;28;20050;-69
2022/04/14 05:55:44;;;;;;;39.27;30.20;;;10.50;99.90;;;;;;4993682;28;20052;-71
2022/04/14 05:58:11;;;;;;;43.77;29.30;;;10.30;99.90;;;;;;4993581;28;20061;-69
2022/04/14 06:00:36;;;;;;;36.60;30.57;;;10.70;99.90;;;;;;4993579;28;20057;-69
2022/04/14 06:03:02;;;;;;;40.63;27.93;;;10.30;99.90;;;;;;5002280;28;20105;-69
2022/04/14 06:05:29;;;;;;;32.67;26.80;;;10.40;99.90;;;;;;5007849;28;20038;-68
2022/04/14 06:07:55;;;;;;;48.10;30.33;;;10.30;99.90;;;;;;4993656;28;20062;-69
2022/04/14 06:10:22;;;;;;;38.53;31.87;;;10.50;99.90;;;;;;4993420;28;20069;-69
2022/04/14 06:12:49;;;;;;;51.63;33.30;;;10.70;99.90;;;;;;4993560;28;20081;-69
2022/04/14 06:15:15;;;;;;;26.63;24.00;;;10.40;99.90;;;;;;4993275;28;20121;-69
2022/04/14 06:17:42;;;;;;;35.80;28.57;;;10.50;99.90;;;;;;4997271;28;20482;-69
2022/04/14 06:20:08;;;;;;;35.53;31.33;;;10.70;99.90;;;;;;5012501;28;20026;-69
2022/04/14 06:22:41;;;;;;;43.70;30.67;;;10.60;99.90;;;;;;4995065;28;20037;-69
2022/04/14 06:25:12;;;;;;;47.15;32.55;;;10.60;99.90;;;;;;5012593;28;20037;-69
2022/04/14 06:27:42;;;;;;;38.75;29.80;;;10.80;99.90;;;;;;5012844;28;20375;-69
2022/04/14 06:30:12;;;;;;;57.88;29.52;;;10.90;99.90;;;;;;5012350;28;20038;-69
2022/04/14 06:32:38;;;;;;;53.33;31.38;;;11.00;99.90;;;;;;5012343;28;20033;-68
2022/04/14 06:35:06;;;;;;;39.40;32.00;;;11.10;99.90;;;;;;5012521;28;20034;-69
2022/04/14 06:37:32;;;;;;;48.00;32.10;;;11.00;99.90;;;;;;5006942;28;20383;-69
2022/04/14 06:39:58;;;;;;;53.75;32.50;;;11.00;99.90;;;;;;4992812;28;20023;-69
2022/04/14 06:42:24;;;;;;;39.97;33.33;;;11.20;99.90;;;;;;4992638;28;20026;-69
2022/04/14 06:44:49;;;;;;;58.67;36.92;;;10.90;99.90;;;;;;4992416;28;20038;-69
2022/04/14 06:47:15;;;;;;;50.75;33.10;;;11.30;99.90;;;;;;4992440;28;20381;-69
2022/04/14 06:49:40;;;;;;;51.80;33.90;;;11.10;99.90;;;;;;4992686;28;20113;-69
2022/04/14 06:52:07;;;;;;;43.50;33.03;;;11.20;99.90;;;;;;4992686;28;20019;-69
2022/04/14 06:54:33;;;;;;;45.75;32.78;;;11.40;99.90;;;;;;4992054;28;20038;-69
2022/04/14 06:56:59;;;;;;;47.00;35.08;;;11.40;99.90;;;;;;4992493;28;20033;-69
2022/04/14 06:59:25;;;;;;;44.47;33.97;;;11.40;99.90;;;;;;4993481;28;20026;-69
2022/04/14 07:01:50;;;;;;;41.28;35.92;;;11.50;99.90;;;;;;5010791;28;20064;-69
2022/04/14 07:04:16;;;;;;;44.42;37.10;;;11.40;99.90;;;;;;5004786;28;20088;-68
2022/04/14 07:06:41;;;;;;;39.78;35.47;;;11.60;99.90;;;;;;5011572;28;20037;-69
2022/04/14 07:09:06;;;;;;;45.08;35.58;;;11.80;99.90;;;;;;5010599;28;20030;-69
2022/04/14 07:11:32;;;;;;;47.17;37.72;;;12.00;99.90;;;;;;5011407;28;20442;-69
2022/04/14 07:13:59;;;;;;;46.50;39.47;;;12.50;99.90;;;;;;5003964;28;20045;-69
2022/04/14 07:16:25;;;;;;;45.08;36.92;;;12.00;99.90;;;;;;5001331;28;20105;-69
2022/04/14 07:18:50;;;;;;;44.58;36.55;;;11.80;99.90;;;;;;5009930;28;20967;-69
2022/04/14 07:21:16;;;;;;;46.67;38.72;;;11.90;99.90;;;;;;5010736;28;20080;-69
2022/04/14 07:23:42;;;;;;;43.78;38.83;;;12.10;99.90;;;;;;5008149;28;20026;-69
2022/04/14 07:26:07;;;;;;;36.88;32.28;;;12.30;99.90;;;;;;4991196;28;20476;-69
2022/04/14 07:28:33;;;;;;;38.83;34.63;;;12.40;99.90;;;;;;5002952;28;20037;-69
2022/04/14 07:30:58;;;;;;;42.88;37.13;;;12.40;99.90;;;;;;5010626;28;20068;-69
2022/04/14 07:33:24;;;;;;;40.95;36.60;;;12.30;99.90;;;;;;4993077;28;20033;-69
2022/04/14 07:35:51;;;;;;;43.40;38.30;;;12.30;99.90;;;;;;5011626;28;20076;-69
2022/04/14 07:38:16;;;;;;;49.97;40.58;;;12.10;99.90;;;;;;5011259;28;20033;-69
2022/04/14 07:40:41;;;;;;;44.22;35.72;;;12.10;99.90;;;;;;5010799;28;20097;-69
2022/04/14 07:43:07;;;;;;;42.55;37.92;;;12.10;99.90;;;;;;5010493;28;20029;-69
2022/04/14 07:45:33;;;;;;;46.03;37.13;;;12.20;99.90;;;;;;5010605;28;20073;-69
2022/04/14 07:47:58;;;;;;;39.10;33.67;;;12.20;99.90;;;;;;5010202;28;20487;-69
2022/04/14 07:50:24;;;;;;;44.42;36.28;;;12.30;99.90;;;;;;5010200;28;20045;-69
2022/04/14 07:52:55;;;;;;;42.50;34.15;;;12.30;99.90;;;;;;5009286;28;20037;-69
2022/04/14 07:55:26;;;;;;;42.42;34.33;;;12.50;99.90;;;;;;5010582;28;20502;-69
2022/04/14 07:57:53;;;;;;;36.45;31.83;;;12.50;99.90;;;;;;5010377;28;20025;-69
2022/04/14 08:00:20;;;;;;;35.45;30.67;;;12.60;99.90;;;;;;5010211;28;20033;-69
2022/04/14 08:02:53;;;;;;;39.22;33.53;;;12.70;99.90;;;;;;5006486;28;20125;-69
2022/04/14 08:05:20;;;;;;;32.40;28.80;;;12.70;99.90;;;;;;5010285;28;20022;-69
2022/04/14 08:07:46;;;;;;;33.75;28.80;;;12.80;99.90;;;;;;5009888;28;20172;-69
2022/04/14 08:10:11;;;;;;;34.72;29.33;;;13.10;99.90;;;;;;5010388;28;20104;-69
2022/04/14 08:12:37;;;;;;;28.63;25.50;;;13.10;99.90;;;;;;5009773;28;20026;-70
2022/04/14 08:15:04;;;;;;;32.72;28.85;;;13.20;99.90;;;;;;5005694;28;20030;-69
2022/04/14 08:17:29;;;;;;;30.70;27.38;;;13.40;99.90;;;;;;5010091;28;20018;-70
2022/04/14 08:19:55;;;;;;;26.80;23.98;;;13.50;99.90;;;;;;5010596;28;20088;-69
2022/04/14 08:22:20;;;;;;;32.13;26.55;;;13.70;99.90;;;;;;5011686;28;20018;-69
2022/04/14 08:24:47;;;;;;;26.75;24.05;;;13.90;99.90;;;;;;5010539;28;20102;-69
2022/04/14 08:27:13;;;;;;;26.88;24.02;;;14.00;99.90;;;;;;5008995;28;20049;-70
2022/04/14 08:29:39;;;;;;;24.85;22.13;;;14.70;99.90;;;;;;5010408;28;20038;-69
2022/04/14 08:32:07;;;;;;;23.48;20.45;;;14.70;99.90;;;;;;5009819;28;20022;-69
2022/04/14 08:34:33;;;;;;;22.13;19.88;;;14.90;99.90;;;;;;5007209;28;20046;-69
2022/04/14 08:36:59;;;;;;;23.42;20.40;;;15.30;99.90;;;;;;5007918;28;20053;-70
2022/04/14 08:39:25;;;;;;;18.60;16.70;;;15.20;99.90;;;;;;5008887;28;20488;-69
2022/04/14 08:42:00;;;;;;;23.80;18.20;;;15.40;99.90;;;;;;5008918;28;20025;-69
2022/04/14 08:44:30;;;;;;;20.15;18.08;;;17.70;99.90;;;;;;4997804;28;20564;-69
2022/04/14 08:46:58;;;;;;;20.63;18.27;;;15.70;99.90;;;;;;4997358;28;20076;-70
2022/04/14 08:49:24;;;;;;;22.30;18.38;;;15.70;99.90;;;;;;5007504;28;20038;-70
2022/04/14 08:51:50;;;;;;;21.13;18.88;;;15.70;99.90;;;;;;5009826;28;20032;-70
2022/04/14 08:54:18;;;;;;;20.27;17.35;;;15.90;99.90;;;;;;5005858;28;20091;-70
2022/04/14 08:56:46;;;;;;;18.30;16.42;;;16.00;99.90;;;;;;5009627;28;20037;-70
2022/04/14 08:59:12;;;;;;;19.00;14.65;;;16.20;99.90;;;;;;5004824;28;20113;-70
2022/04/14 09:01:38;;;;;;;17.88;14.25;;;16.30;99.90;;;;;;4990125;28;20042;-70
2022/04/14 09:04:05;;;;;;;14.88;13.40;;;16.20;99.90;;;;;;5001682;28;20029;-69
2022/04/14 09:06:32;;;;;;;15.35;12.73;;;16.20;99.90;;;;;;5009731;28;20030;-69
2022/04/14 09:08:58;;;;;;;16.35;13.32;;;16.00;99.90;;;;;;5008877;28;20034;-70
2022/04/14 09:11:25;;;;;;;19.38;14.93;;;16.00;99.90;;;;;;5008694;28;20018;-70
2022/04/14 09:13:51;;;;;;;19.65;12.98;;;15.80;99.90;;;;;;5010172;28;20038;-70
2022/04/14 09:16:17;;;;;;;18.25;13.45;;;15.80;99.90;;;;;;5007324;28;20504;-69
2022/04/14 09:18:45;;;;;;;17.55;13.68;;;16.40;99.90;;;;;;5000116;28;20088;-70
2022/04/14 09:21:11;;;;;;;15.98;12.35;;;15.60;99.90;;;;;;5005231;28;20034;-72
2022/04/14 09:23:36;;;;;;;14.48;12.07;;;15.60;99.90;;;;;;5000299;28;20030;-69
2022/04/14 09:26:14;;;;;;;14.85;12.95;;;15.70;99.90;;;;;;5013200;28;20084;-69
2022/04/14 09:29:02;;;;;;;15.45;12.60;;;15.70;99.90;;;;;;5013136;28;20545;-69
2022/04/14 09:31:29;;;;;;;15.43;13.60;;;15.80;99.90;;;;;;5009305;28;20025;-69
2022/04/14 09:33:55;;;;;;;17.83;13.48;;;15.80;99.90;;;;;;5012504;28;20113;-69
2022/04/14 09:36:23;;;;;;;14.13;12.63;;;15.80;99.90;;;;;;5013049;28;20105;-69
2022/04/14 09:39:00;;;;;;;16.00;13.27;;;15.90;99.90;;;;;;4992004;28;20431;-69
2022/04/14 09:41:37;;;;;;;14.70;11.43;;;15.90;99.90;;;;;;5007589;28;20080;-69
2022/04/14 09:44:11;;;;;;;13.20;11.57;;;16.00;99.90;;;;;;5009370;28;20029;-69
2022/04/14 09:46:37;;;;;;;;;;;16.10;99.90;;;;;;5007288;28;20061;-70
2022/04/14 09:49:08;;;;;;;12.05;10.63;;;16.10;99.90;;;;;;5009353;28;19910;-70
2022/04/14 09:51:35;;;;;;;13.07;10.45;;;16.20;99.90;;;;;;5008615;28;20023;-67
2022/04/14 09:54:12;;;;;;;17.73;12.70;;;16.30;99.90;;;;;;4991900;28;20048;-69
2022/04/14 09:56:51;;;;;;;13.48;11.30;;;16.40;99.90;;;;;;4993876;28;20088;-69
2022/04/14 09:59:23;;;;;;;14.57;13.00;;;16.30;99.90;;;;;;4993632;28;20133;-69
2022/04/14 10:01:49;;;;;;;15.50;12.02;;;16.40;99.90;;;;;;5005526;28;20018;-69
2022/04/14 10:04:32;;;;;;;13.32;11.50;;;16.40;99.90;;;;;;5007025;28;20034;-69
2022/04/14 10:07:24;;;;;;;15.10;12.20;;;16.50;99.90;;;;;;5008770;28;20036;-69
2022/04/14 10:09:53;;;;;;;17.98;13.45;;;16.50;99.90;;;;;;5009462;28;20631;-69
2022/04/14 10:12:24;;;;;;;15.57;12.20;;;16.60;99.90;;;;;;5007925;28;20092;-69
2022/04/14 10:14:56;;;;;;;12.88;10.98;;;16.70;99.90;;;;;;5012724;28;20033;-69
2022/04/14 10:17:24;;;;;;;20.15;13.23;;;17.00;99.90;;;;;;5010854;28;20529;-69
2022/04/14 10:19:51;;;;;;;15.85;12.50;;;16.60;99.90;;;;;;5011569;28;20046;-68
2022/04/14 10:22:17;;;;;;;16.80;11.50;;;16.60;99.90;;;;;;5008454;28;20057;-68
2022/04/14 10:24:44;;;;;;;15.07;12.52;;;16.70;99.90;;;;;;4993001;28;20030;-69
2022/04/14 10:27:10;;;;;;;13.77;10.82;;;16.60;99.90;;;;;;5003034;28;20109;-68
2022/04/14 10:29:39;;;;;;;14.05;10.93;;;16.70;99.90;;;;;;5011273;28;20065;-68
2022/04/14 10:32:05;;;;;;;12.60;10.07;;;16.80;99.90;;;;;;4997760;28;20026;-68
2022/04/14 10:34:32;;;;;;;16.20;11.07;;;17.00;99.90;;;;;;5005897;28;20518;-68
2022/04/14 10:36:59;;;;;;;13.07;11.13;;;17.10;99.90;;;;;;5010509;28;20490;-68
2022/04/14 10:39:28;;;;;;;14.55;10.70;;;17.10;99.90;;;;;;5004146;28;20113;-69
2022/04/14 10:41:54;;;;;;;10.85;9.75;;;17.10;99.90;;;;;;5002720;28;20042;-68
2022/04/14 10:44:20;;;;;;;16.77;12.07;;;17.20;99.90;;;;;;5012082;28;20030;-68
2022/04/14 10:46:48;;;;;;;13.20;10.98;;;17.20;99.90;;;;;;5011477;28;20057;-68
2022/04/14 10:49:17;;;;;;;13.50;9.95;;;17.30;99.90;;;;;;5012101;28;20395;-68
2022/04/14 10:51:43;;;;;;;13.75;10.32;;;17.50;99.90;;;;;;5011870;28;20467;-68
2022/04/14 10:54:10;;;;;;;12.68;9.38;;;17.50;99.90;;;;;;5011901;28;20045;-68
2022/04/14 10:56:42;;;;;;;14.30;10.23;;;17.70;99.90;;;;;;5009607;28;20073;-68
2022/04/14 10:59:11;;;;;;;15.85;10.18;;;17.80;99.90;;;;;;5010510;28;20463;-69
2022/04/14 11:01:45;;;;;;;14.20;9.43;;;17.90;99.90;;;;;;5011771;28;20022;-69
2022/04/14 11:04:39;;;;;;;15.98;10.35;;;17.90;99.90;;;;;;5010423;28;20036;-69
2022/04/14 11:07:18;;;;;;;13.75;11.05;;;17.90;99.90;;;;;;5010782;28;20033;-70
2022/04/14 11:09:53;;;;;;;11.45;9.85;;;18.00;99.90;;;;;;5010110;28;20088;-70
2022/04/14 11:12:54;;;;;;;14.90;9.75;;;18.00;99.90;;;;;;5010256;28;20028;-70
2022/04/14 11:15:32;;;;;;;10.77;8.55;;;18.10;99.60;;;;;;5010851;28;20033;-70
2022/04/14 11:18:04;;;;;;;13.10;8.90;;;18.10;99.90;;;;;;5004226;28;20394;-71
2022/04/14 11:20:44;;;;;;;13.32;9.88;;;18.20;99.90;;;;;;5007748;28;20034;-71
2022/04/14 11:23:28;;;;;;;11.60;8.18;;;18.20;98.60;;;;;;5011272;28;20026;-70
2022/04/14 11:26:07;;;;;;;8.70;7.18;;;18.30;98.80;;;;;;5011696;28;20022;-70
2022/04/14 11:28:35;;;;;;;9.85;5.97;;;18.50;99.40;;;;;;5007193;28;20733;-72
2022/04/14 11:31:17;;;;;;;9.40;6.72;;;18.50;98.60;;;;;;5008172;28;20104;-69
2022/04/14 11:33:47;;;;;;;9.05;6.60;;;18.70;97.30;;;;;;5011053;28;20042;-70
2022/04/14 11:36:20;;;;;;;7.28;4.82;;;19.10;98.20;;;;;;5010590;28;20024;-70
2022/04/14 11:38:53;;;;;;;6.65;4.72;;;18.90;96.90;;;;;;5010246;28;20091;-69
2022/04/14 11:41:49;;;;;;;7.30;5.38;;;18.80;96.10;;;;;;5010050;28;20037;-69
2022/04/14 11:44:30;;;;;;;8.90;5.40;;;18.90;95.90;;;;;;5002431;28;20499;-68
2022/04/14 11:46:58;;;;;;;6.70;4.28;;;19.00;95.40;;;;;;5010699;28;20506;-69
2022/04/14 11:49:29;;;;;;;8.65;5.05;;;18.90;95.90;;;;;;5010387;28;20022;-69
2022/04/14 11:51:57;;;;;;;4.85;4.22;;;19.10;95.90;;;;;;5010201;28;20617;-69
2022/04/14 11:54:35;;;;;;;6.22;3.00;;;19.20;95.30;;;;;;5004878;28;20042;-69
2022/04/14 11:57:06;;;;;;;10.45;3.45;;;19.30;94.60;;;;;;5008243;28;20025;-71
2022/04/14 11:59:54;;;;;;;5.38;2.78;;;19.40;93.80;;;;;;5003528;28;20041;-68
2022/04/14 12:02:20;;;;;;;5.65;2.85;;;19.40;93.60;;;;;;5010023;28;20048;-68
2022/04/14 12:04:47;;;;;;;3.53;2.25;;;19.60;92.90;;;;;;5007200;28;20117;-69
2022/04/14 12:07:13;;;;;;;3.13;1.70;;;19.80;93.10;;;;;;5007367;28;20497;-71
2022/04/14 12:09:42;;;;;;;5.30;1.67;;;20.00;92.60;;;;;;5010223;28;20045;-70
2022/04/14 12:12:13;;;;;;;3.83;1.45;;;20.10;91.20;;;;;;5010416;28;20033;-70
2022/04/14 12:14:47;;;;;;;5.43;2.72;;;20.10;90.00;;;;;;5010275;28;20037;-68
2022/04/14 12:17:17;;;;;;;4.63;2.50;;;20.00;90.90;;;;;;5007550;28;20098;-69
2022/04/14 12:19:50;;;;;;;6.22;2.58;;;19.90;90.00;;;;;;5009365;28;20033;-71
2022/04/14 12:22:16;;;;;;;7.88;2.80;;;19.50;91.00;;;;;;5009246;28;20034;-71
2022/04/14 12:24:53;;;;;;;4.68;2.28;;;19.30;90.70;;;;;;5010224;28;20382;-70
2022/04/14 12:27:27;;;;;;;4.97;2.00;;;19.40;91.90;;;;;;5010339;28;20018;-72
2022/04/14 12:29:55;;;;;;;;;;;18.90;92.10;;;;;;5011103;28;20053;-69